createdAt,value
2022-09-15T00:00:52.749Z,2.50
2022-09-15T00:03:19.867Z,2.80
2022-09-15T00:05:46.413Z,2.80
2022-09-15T00:08:13.235Z,2.72
2022-09-15T00:10:47.788Z,2.90
2022-09-15T00:13:14.373Z,2.55
2022-09-15T00:15:40.580Z,2.58
2022-09-15T00:18:07.158Z,2.90
2022-09-15T00:20:33.360Z,2.83
2022-09-15T00:22:59.581Z,2.95
2022-09-15T00:25:25.789Z,2.92
2022-09-15T00:27:52.007Z,3.03
2022-09-15T00:30:18.261Z,2.80
2022-09-15T00:32:44.480Z,2.92
2022-09-15T00:35:10.705Z,2.88
2022-09-15T00:37:36.921Z,2.80
2022-09-15T00:40:03.354Z,3.28
2022-09-15T00:42:29.651Z,3.03
2022-09-15T00:44:57.299Z,3.30
2022-09-15T00:47:25.874Z,3.60
2022-09-15T00:49:59.060Z,3.30
2022-09-15T00:52:28.848Z,3.42
2022-09-15T00:55:00.294Z,3.50
2022-09-15T00:57:32.332Z,3.80
2022-09-15T01:00:00.310Z,3.33
2022-09-15T01:02:28.902Z,3.40
2022-09-15T01:04:58.510Z,3.45
2022-09-15T01:07:37.291Z,3.40
2022-09-15T01:10:11.672Z,2.92
2022-09-15T01:12:39.167Z,3.30
2022-09-15T01:15:05.675Z,3.00
2022-09-15T01:17:40.328Z,3.30
2022-09-15T01:20:24.954Z,3.25
2022-09-15T01:23:10.063Z,3.97
2022-09-15T01:25:39.321Z,3.28
2022-09-15T01:28:24.847Z,3.00
2022-09-15T01:30:56.032Z,2.95
2022-09-15T01:33:23.110Z,2.92
2022-09-15T01:35:49.502Z,3.08
2022-09-15T01:38:21.261Z,3.00
2022-09-15T01:40:54.105Z,3.08
2022-09-15T01:43:22.238Z,2.88
2022-09-15T01:45:49.724Z,2.60
2022-09-15T01:48:18.267Z,2.85
2022-09-15T01:50:47.053Z,2.80
2022-09-15T01:53:15.477Z,2.75
2022-09-15T01:55:44.396Z,2.38
2022-09-15T01:58:10.623Z,2.83
2022-09-15T02:00:41.156Z,2.50
2022-09-15T02:03:32.730Z,2.78
2022-09-15T02:06:07.121Z,2.38
2022-09-15T02:08:33.304Z,2.42
2022-09-15T02:11:15.365Z,2.70
2022-09-15T02:13:45.197Z,2.25
2022-09-15T02:16:15.263Z,2.23
2022-09-15T02:18:48.786Z,2.20
2022-09-15T02:21:18.820Z,2.25
2022-09-15T02:23:50.938Z,2.08
2022-09-15T02:26:19.530Z,1.98
2022-09-15T02:28:46.369Z,2.30
2022-09-15T02:31:15.314Z,2.10
2022-09-15T02:33:44.217Z,2.00
2022-09-15T02:36:13.477Z,2.25
2022-09-15T02:38:43.861Z,2.50
2022-09-15T02:41:10.079Z,1.80
2022-09-15T02:43:43.851Z,2.03
2022-09-15T02:46:10.105Z,1.92
2022-09-15T02:48:36.389Z,2.22
2022-09-15T02:51:02.622Z,1.80
2022-09-15T02:53:28.841Z,1.73
2022-09-15T02:55:55.103Z,2.35
2022-09-15T02:58:21.310Z,1.67
2022-09-15T03:00:47.684Z,1.63
2022-09-15T03:03:14.640Z,1.85
2022-09-15T03:05:40.855Z,1.40
2022-09-15T03:08:07.507Z,1.60
2022-09-15T03:10:33.742Z,1.52
2022-09-15T03:12:59.987Z,1.50
2022-09-15T03:15:26.949Z,1.75
2022-09-15T03:17:53.702Z,1.38
2022-09-15T03:20:21.461Z,1.48
2022-09-15T03:22:48.213Z,1.48
2022-09-15T03:25:14.549Z,2.05
2022-09-15T03:27:40.785Z,1.60
2022-09-15T03:30:07.404Z,1.80
2022-09-15T03:32:33.615Z,1.92
2022-09-15T03:34:59.975Z,1.80
2022-09-15T03:37:26.287Z,1.77
2022-09-15T03:39:52.599Z,1.70
2022-09-15T03:42:19.741Z,1.45
2022-09-15T03:44:45.980Z,1.73
2022-09-15T03:47:12.229Z,1.58
2022-09-15T03:49:38.838Z,1.65
2022-09-15T03:52:05.038Z,1.73
2022-09-15T03:54:31.312Z,1.70
2022-09-15T03:56:57.795Z,1.70
2022-09-15T03:59:24.206Z,1.48
2022-09-15T04:01:50.793Z,1.70
2022-09-15T04:04:17.434Z,1.60
2022-09-15T04:06:44.171Z,1.75
2022-09-15T04:09:10.674Z,1.60
2022-09-15T04:11:37.591Z,1.58
2022-09-15T04:14:03.875Z,1.63
2022-09-15T04:16:30.213Z,1.55
2022-09-15T04:18:56.597Z,1.40
2022-09-15T04:21:24.415Z,1.40
2022-09-15T04:23:51.578Z,0.90
2022-09-15T04:26:20.902Z,1.20
2022-09-15T04:28:47.148Z,1.55
2022-09-15T04:31:14.437Z,1.30
2022-09-15T04:33:41.376Z,1.10
2022-09-15T04:36:09.024Z,1.17
2022-09-15T04:38:38.701Z,1.20
2022-09-15T04:41:05.066Z,1.30
2022-09-15T04:43:32.003Z,1.63
2022-09-15T04:45:58.542Z,1.13
2022-09-15T04:48:25.473Z,1.20
2022-09-15T04:50:51.755Z,1.15
2022-09-15T04:53:17.992Z,1.13
2022-09-15T04:55:44.636Z,0.90
2022-09-15T04:58:11.149Z,1.65
2022-09-15T05:00:43.022Z,1.08
2022-09-15T05:03:10.283Z,0.90
2022-09-15T05:05:36.502Z,0.80
2022-09-15T05:08:03.314Z,1.20
2022-09-15T05:10:29.623Z,1.10
2022-09-15T05:12:55.835Z,1.23
2022-09-15T05:15:22.099Z,1.10
2022-09-15T05:17:49.690Z,1.05
2022-09-15T05:20:16.111Z,1.00
2022-09-15T05:22:42.377Z,1.17
2022-09-15T05:25:08.777Z,1.20
2022-09-15T05:27:35.005Z,1.05
2022-09-15T05:30:25.226Z,1.08
2022-09-15T05:32:47.437Z,1.20
2022-09-15T05:35:13.738Z,1.00
2022-09-15T05:37:40.000Z,1.10
2022-09-15T05:40:08.614Z,1.30
2022-09-15T05:42:35.400Z,1.05
2022-09-15T05:45:01.617Z,0.90
2022-09-15T05:47:27.821Z,1.30
2022-09-15T05:49:54.796Z,1.13
2022-09-15T05:52:21.619Z,0.95
2022-09-15T05:54:47.848Z,1.70
2022-09-15T05:57:14.216Z,1.08
2022-09-15T05:59:41.952Z,0.88
2022-09-15T06:02:09.666Z,1.25
2022-09-15T06:04:35.945Z,1.10
2022-09-15T06:07:02.505Z,1.00
2022-09-15T06:09:28.796Z,1.25
2022-09-15T06:11:55.008Z,1.05
2022-09-15T06:14:21.220Z,0.90
2022-09-15T06:16:47.563Z,1.38
2022-09-15T06:19:14.007Z,0.90
2022-09-15T06:21:40.207Z,1.20
2022-09-15T06:24:06.910Z,0.90
2022-09-15T06:26:33.605Z,1.23
2022-09-15T06:29:01.114Z,1.20
2022-09-15T06:31:29.090Z,1.00
2022-09-15T06:33:56.880Z,0.90
2022-09-15T06:36:24.792Z,0.80
2022-09-15T06:38:51.621Z,1.35
2022-09-15T06:41:17.921Z,1.00
2022-09-15T06:43:44.569Z,1.10
2022-09-15T06:46:12.228Z,0.82
2022-09-15T06:48:39.054Z,0.70
2022-09-15T06:51:06.579Z,0.90
2022-09-15T06:53:33.743Z,1.00
2022-09-15T06:56:07.710Z,0.93
2022-09-15T06:58:34.883Z,1.00
2022-09-15T07:01:04.959Z,0.80
2022-09-15T07:03:31.543Z,0.90
2022-09-15T07:05:58.247Z,1.23
2022-09-15T07:08:24.544Z,0.85
2022-09-15T07:10:50.772Z,1.95
2022-09-15T07:13:17.058Z,1.70
2022-09-15T07:15:49.515Z,1.50
2022-09-15T07:18:15.753Z,1.98
2022-09-15T07:20:42.011Z,1.33
2022-09-15T07:23:08.418Z,1.10
2022-09-15T07:25:34.914Z,1.10
2022-09-15T07:28:01.225Z,1.08
2022-09-15T07:30:27.788Z,0.80
2022-09-15T07:32:56.304Z,1.15
2022-09-15T07:35:22.533Z,1.00
2022-09-15T07:37:48.794Z,0.90
2022-09-15T07:40:15.147Z,1.20
2022-09-15T07:42:44.972Z,1.52
2022-09-15T07:45:11.744Z,1.23
2022-09-15T07:47:38.383Z,1.20
2022-09-15T07:50:05.651Z,1.02
2022-09-15T07:52:32.110Z,1.20
2022-09-15T07:54:58.510Z,1.65
2022-09-15T07:57:24.779Z,1.20
2022-09-15T07:59:51.213Z,0.85
2022-09-15T08:02:18.036Z,1.05
2022-09-15T08:04:44.434Z,0.88
2022-09-15T08:07:10.919Z,1.77
2022-09-15T08:09:37.475Z,1.25
2022-09-15T08:12:04.105Z,1.13
2022-09-15T08:14:32.662Z,0.57
2022-09-15T08:17:01.049Z,0.80
2022-09-15T08:19:31.365Z,0.98
2022-09-15T08:21:57.918Z,0.60
2022-09-15T08:24:24.328Z,0.63
2022-09-15T08:26:50.970Z,1.25
2022-09-15T08:29:17.918Z,1.00
2022-09-15T08:31:47.780Z,0.60
2022-09-15T08:34:15.233Z,0.60
2022-09-15T08:36:41.472Z,0.80
2022-09-15T08:39:07.999Z,0.70
2022-09-15T08:41:42.785Z,0.65
2022-09-15T08:44:32.338Z,0.70
2022-09-15T08:47:01.167Z,0.73
2022-09-15T08:49:51.197Z,0.60
2022-09-15T08:52:27.753Z,0.80
2022-09-15T08:54:55.980Z,0.90
2022-09-15T08:57:23.352Z,0.77
2022-09-15T08:59:49.615Z,1.05
2022-09-15T09:02:19.842Z,0.70
2022-09-15T09:04:57.824Z,0.70
2022-09-15T09:07:42.761Z,0.70
2022-09-15T09:10:15.242Z,1.08
2022-09-15T09:12:44.514Z,0.90
2022-09-15T09:15:36.926Z,0.70
2022-09-15T09:18:03.176Z,0.60
2022-09-15T09:20:37.491Z,0.65
2022-09-15T09:23:05.667Z,1.00
2022-09-15T09:25:31.995Z,0.65
2022-09-15T09:27:58.357Z,0.50
2022-09-15T09:30:25.632Z,0.63
2022-09-15T09:33:07.204Z,0.75
2022-09-15T09:35:59.908Z,0.75
2022-09-15T09:38:29.738Z,0.68
2022-09-15T09:41:01.321Z,0.93
2022-09-15T09:43:29.355Z,0.55
2022-09-15T09:45:55.718Z,0.68
2022-09-15T09:48:24.023Z,0.70
2022-09-15T09:50:50.818Z,0.73
2022-09-15T09:53:17.004Z,0.60
2022-09-15T09:55:45.732Z,0.57
2022-09-15T09:58:13.426Z,0.98
2022-09-15T10:00:40.292Z,0.70
2022-09-15T10:03:11.680Z,0.80
2022-09-15T10:05:37.934Z,0.68
2022-09-15T10:08:04.187Z,0.70
2022-09-15T10:10:32.205Z,0.82
2022-09-15T10:12:59.548Z,0.70
2022-09-15T10:15:29.896Z,0.90
2022-09-15T10:17:56.865Z,0.80
2022-09-15T10:20:26.131Z,0.80
2022-09-15T10:23:01.666Z,1.38
2022-09-15T10:25:44.160Z,1.48
2022-09-15T10:28:13.542Z,0.82
2022-09-15T10:30:57.265Z,1.40
2022-09-15T10:33:24.729Z,1.45
2022-09-15T10:35:51.567Z,1.20
2022-09-15T10:38:38.035Z,1.25
2022-09-15T10:41:25.883Z,1.00
2022-09-15T10:43:58.144Z,1.45
2022-09-15T10:46:27.157Z,1.17
2022-09-15T10:49:12.061Z,2.00
2022-09-15T10:51:38.332Z,3.47
2022-09-15T10:54:15.788Z,1.20
2022-09-15T10:56:44.214Z,1.08
2022-09-15T10:59:33.863Z,0.82
2022-09-15T11:02:03.196Z,1.10
2022-09-15T11:04:32.536Z,0.80
2022-09-15T11:07:17.079Z,0.70
2022-09-15T11:09:47.307Z,0.90
2022-09-15T11:12:13.536Z,1.30
2022-09-15T11:14:51.653Z,0.95
2022-09-15T11:17:22.557Z,0.90
2022-09-15T11:20:01.582Z,0.68
2022-09-15T11:22:35.322Z,0.60
2022-09-15T11:25:17.026Z,0.90
2022-09-15T11:27:46.731Z,0.90
2022-09-15T11:30:17.392Z,1.00
2022-09-15T11:32:55.622Z,0.73
2022-09-15T11:37:54.072Z,1.13
2022-09-15T11:40:20.336Z,0.80
2022-09-15T11:42:55.803Z,0.80
2022-09-15T11:45:25.409Z,0.90
2022-09-15T11:47:59.561Z,0.80
2022-09-15T11:50:37.881Z,1.10
2022-09-15T11:53:16.660Z,0.82
2022-09-15T11:55:47.322Z,0.65
2022-09-15T11:58:34.590Z,0.73
2022-09-15T12:01:00.787Z,0.60
2022-09-15T12:03:44.476Z,0.80
2022-09-15T12:06:29.743Z,0.63
2022-09-15T12:09:00.992Z,0.98
2022-09-15T12:11:29.282Z,1.00
2022-09-15T12:13:55.977Z,1.25
2022-09-15T12:16:22.627Z,0.90
2022-09-15T12:18:48.857Z,0.80
2022-09-15T12:21:27.656Z,0.68
2022-09-15T12:24:20.090Z,0.50
2022-09-15T12:26:46.622Z,0.60
2022-09-15T12:29:38.093Z,0.65
2022-09-15T12:32:22.812Z,0.90
2022-09-15T12:35:13.389Z,1.00
2022-09-15T12:37:45.723Z,0.63
2022-09-15T12:40:30.335Z,0.57
2022-09-15T12:42:57.244Z,0.88
2022-09-15T12:45:28.593Z,0.77
2022-09-15T12:47:56.352Z,0.73
2022-09-15T12:50:28.929Z,0.50
2022-09-15T12:52:59.824Z,0.80
2022-09-15T12:55:27.531Z,0.60
2022-09-15T12:58:01.278Z,0.40
2022-09-15T13:00:35.240Z,0.50
2022-09-15T13:03:02.062Z,0.50
2022-09-15T13:05:47.258Z,0.52
2022-09-15T13:08:28.980Z,0.50
2022-09-15T13:11:03.107Z,0.55
2022-09-15T13:13:34.719Z,0.50
2022-09-15T13:16:02.175Z,0.63
2022-09-15T13:18:29.763Z,0.90
2022-09-15T13:21:00.394Z,1.10
2022-09-15T13:25:56.155Z,0.90
2022-09-15T13:28:22.679Z,0.70
2022-09-15T13:31:02.928Z,0.60
2022-09-15T13:39:48.828Z,0.55
2022-09-15T13:42:26.179Z,0.50
2022-09-15T13:44:58.554Z,0.63
2022-09-15T13:47:38.957Z,0.57
2022-09-15T13:50:11.503Z,0.75
2022-09-15T13:52:37.717Z,0.70
2022-09-15T13:55:19.856Z,0.70
2022-09-15T14:00:55.657Z,0.95
2022-09-15T14:03:25.787Z,1.00
2022-09-15T14:05:53.299Z,0.70
2022-09-15T14:08:26.759Z,0.70
2022-09-15T14:10:58.102Z,0.90
2022-09-15T14:13:26.560Z,0.80
2022-09-15T14:15:56.789Z,0.77
2022-09-15T14:18:23.091Z,1.40
2022-09-15T14:21:02.941Z,0.80
2022-09-15T14:23:29.924Z,0.70
2022-09-15T14:26:00.316Z,0.73
2022-09-15T14:28:31.421Z,0.90
2022-09-15T14:31:01.564Z,0.68
2022-09-15T14:33:39.771Z,0.90
2022-09-15T14:36:22.481Z,0.80
2022-09-15T14:39:08.829Z,0.70
2022-09-15T14:41:36.503Z,0.60
2022-09-15T14:45:52.529Z,0.60
2022-09-15T14:47:32.132Z,0.70
2022-09-15T14:50:11.818Z,0.60
2022-09-15T14:52:40.245Z,0.47
2022-09-15T14:55:11.008Z,0.43
2022-09-15T14:57:38.073Z,0.93
2022-09-15T15:00:07.585Z,1.08
2022-09-15T15:02:50.541Z,0.60
2022-09-15T15:05:22.399Z,0.77
2022-09-15T15:07:48.887Z,0.80
2022-09-15T15:10:25.746Z,0.70
2022-09-15T15:12:53.521Z,0.82
2022-09-15T15:15:19.987Z,0.90
2022-09-15T15:17:49.290Z,0.55
2022-09-15T15:20:22.634Z,0.50
2022-09-15T15:23:03.846Z,0.75
2022-09-15T15:25:34.078Z,0.60
2022-09-15T15:28:00.348Z,0.57
2022-09-15T15:30:32.376Z,0.60
2022-09-15T15:33:00.326Z,0.80
2022-09-15T15:35:26.622Z,1.05
2022-09-15T15:38:00.714Z,0.60
2022-09-15T15:40:27.055Z,0.50
2022-09-15T15:42:57.811Z,0.80
2022-09-15T15:45:27.574Z,0.82
2022-09-15T15:47:53.839Z,0.63
2022-09-15T15:50:21.316Z,0.85
2022-09-15T15:52:48.711Z,0.60
2022-09-15T15:55:15.951Z,0.88
2022-09-15T15:57:42.507Z,0.85
2022-09-15T16:00:22.667Z,0.70
2022-09-15T16:02:49.590Z,1.13
2022-09-15T16:05:16.017Z,0.73
2022-09-15T16:07:42.768Z,1.00
2022-09-15T16:10:14.596Z,0.70
2022-09-15T16:12:40.807Z,0.60
2022-09-15T16:15:14.438Z,0.70
2022-09-15T16:17:45.896Z,0.60
2022-09-15T16:20:15.648Z,0.80
2022-09-15T16:22:42.369Z,0.70
2022-09-15T16:25:16.857Z,0.70
2022-09-15T16:27:43.088Z,1.40
2022-09-15T16:30:11.896Z,0.85
2022-09-15T16:32:39.585Z,0.57
2022-09-15T16:35:19.019Z,0.80
2022-09-15T16:37:45.389Z,0.70
2022-09-15T16:40:11.743Z,0.50
2022-09-15T16:42:38.044Z,0.68
2022-09-15T16:45:14.047Z,0.60
2022-09-15T16:47:40.328Z,0.55
2022-09-15T16:50:06.666Z,0.50
2022-09-15T16:52:32.916Z,0.50
2022-09-15T16:54:59.126Z,0.57
2022-09-15T16:57:25.493Z,0.70
2022-09-15T16:59:51.694Z,0.50
2022-09-15T17:02:18.851Z,0.50
2022-09-15T17:04:45.183Z,0.40
2022-09-15T17:07:11.406Z,0.65
2022-09-15T17:09:37.615Z,0.60
2022-09-15T17:12:04.573Z,0.60
2022-09-15T17:14:30.820Z,0.60
2022-09-15T17:16:57.579Z,0.43
2022-09-15T17:19:23.792Z,0.35
2022-09-15T17:21:50.236Z,1.15
2022-09-15T17:24:17.378Z,0.30
2022-09-15T17:26:43.589Z,0.60
2022-09-15T17:29:09.813Z,0.50
2022-09-15T17:31:36.096Z,0.63
2022-09-15T17:34:02.558Z,0.40
2022-09-15T17:36:28.840Z,0.40
2022-09-15T17:38:55.608Z,0.73
2022-09-15T17:41:22.765Z,0.63
2022-09-15T17:43:49.391Z,0.93
2022-09-15T17:46:15.665Z,0.70
2022-09-15T17:48:42.022Z,0.82
2022-09-15T17:51:12.789Z,0.68
2022-09-15T17:53:38.986Z,0.75
2022-09-15T17:56:05.367Z,0.75
2022-09-15T17:58:31.835Z,0.50
2022-09-15T18:00:58.408Z,0.60
2022-09-15T18:03:27.634Z,1.70
2022-09-15T18:05:54.715Z,0.90
2022-09-15T18:08:21.025Z,0.60
2022-09-15T18:10:47.281Z,0.68
2022-09-15T18:13:15.530Z,0.70
2022-09-15T18:15:42.815Z,0.55
2022-09-15T18:18:12.187Z,0.57
2022-09-15T18:20:38.764Z,0.50
2022-09-15T18:23:04.969Z,0.93
2022-09-15T18:25:32.651Z,0.60
2022-09-15T18:27:59.857Z,0.80
2022-09-15T18:30:27.354Z,0.85
2022-09-15T18:32:53.655Z,0.85
2022-09-15T18:35:20.771Z,0.60
2022-09-15T18:37:47.833Z,0.80
2022-09-15T18:40:15.500Z,0.90
2022-09-15T18:42:41.762Z,0.70
2022-09-15T18:45:09.482Z,0.60
2022-09-15T18:47:36.076Z,0.57
2022-09-15T18:50:05.106Z,0.70
2022-09-15T18:52:31.409Z,0.60
2022-09-15T18:54:59.487Z,0.45
2022-09-15T18:57:25.845Z,0.50
2022-09-15T18:59:52.112Z,0.60
2022-09-15T19:02:18.422Z,0.70
2022-09-15T19:04:45.369Z,0.60
2022-09-15T19:07:11.806Z,0.65
2022-09-15T19:09:38.202Z,0.70
2022-09-15T19:12:04.715Z,0.68
2022-09-15T19:14:31.052Z,0.50
2022-09-15T19:16:58.473Z,0.80
2022-09-15T19:19:25.267Z,0.65
2022-09-15T19:21:51.792Z,0.70
2022-09-15T19:24:18.045Z,0.90
2022-09-15T19:26:46.639Z,0.85
2022-09-15T19:29:13.846Z,0.52
2022-09-15T19:31:42.169Z,0.70
2022-09-15T19:34:08.676Z,0.50
2022-09-15T19:36:34.950Z,0.50
2022-09-15T19:39:03.139Z,0.85
2022-09-15T19:41:31.296Z,0.50
2022-09-15T19:44:00.074Z,0.50
2022-09-15T19:46:26.509Z,0.50
2022-09-15T19:48:53.585Z,0.70
2022-09-15T19:51:20.343Z,0.60
2022-09-15T19:53:46.841Z,0.60
2022-09-15T19:56:14.259Z,0.70
2022-09-15T19:58:40.763Z,0.60
2022-09-15T20:01:07.091Z,0.70
2022-09-15T20:03:33.376Z,0.70
2022-09-15T20:05:59.592Z,0.60
2022-09-15T20:08:25.892Z,0.88
2022-09-15T20:10:52.295Z,0.75
2022-09-15T20:13:18.831Z,0.73
2022-09-15T20:15:55.211Z,0.90
2022-09-15T20:18:21.475Z,0.88
2022-09-15T20:20:47.703Z,1.15
2022-09-15T20:23:15.094Z,0.70
2022-09-15T20:25:41.352Z,0.88
2022-09-15T20:28:07.560Z,0.77
2022-09-15T20:30:33.871Z,0.93
2022-09-15T20:33:00.139Z,0.60
2022-09-15T20:35:26.346Z,0.80
2022-09-15T20:37:52.767Z,0.88
2022-09-15T20:40:19.087Z,0.80
2022-09-15T20:42:45.453Z,1.42
2022-09-15T20:45:11.675Z,1.20
2022-09-15T20:47:37.911Z,1.20
2022-09-15T20:50:04.555Z,1.30
2022-09-15T20:52:34.761Z,1.10
2022-09-15T20:55:04.534Z,1.00
2022-09-15T20:57:30.788Z,0.90
2022-09-15T20:59:57.003Z,1.08
2022-09-15T21:02:23.264Z,1.20
2022-09-15T21:04:49.486Z,0.88
2022-09-15T21:07:15.675Z,0.80
2022-09-15T21:09:41.882Z,1.13
2022-09-15T21:12:08.609Z,1.10
2022-09-15T21:14:34.865Z,1.30
2022-09-15T21:17:01.134Z,1.30
2022-09-15T21:19:27.344Z,1.10
2022-09-15T21:21:54.887Z,1.10
2022-09-15T21:24:21.283Z,1.20
2022-09-15T21:27:06.311Z,1.10
2022-09-15T21:29:32.533Z,1.33
2022-09-15T21:31:58.771Z,1.10
2022-09-15T21:34:25.576Z,1.02
2022-09-15T21:36:53.412Z,1.30
2022-09-15T21:39:19.662Z,1.10
2022-09-15T21:41:45.926Z,1.02
2022-09-15T21:44:12.164Z,1.23
2022-09-15T21:46:38.466Z,1.00
2022-09-15T21:49:04.664Z,1.00
2022-09-15T21:51:30.908Z,0.80
2022-09-15T21:53:58.301Z,1.10
2022-09-15T21:56:25.135Z,0.90
2022-09-15T21:58:51.371Z,1.40
2022-09-15T22:01:19.943Z,1.02
2022-09-15T22:03:53.555Z,0.88
2022-09-15T22:06:21.346Z,1.00
2022-09-15T22:08:47.899Z,1.00
2022-09-15T22:11:14.141Z,0.90
2022-09-15T22:13:41.828Z,1.08
2022-09-15T22:16:10.304Z,1.08
2022-09-15T22:18:37.499Z,1.27
2022-09-15T22:21:08.761Z,1.08
2022-09-15T22:23:35.416Z,1.23
2022-09-15T22:26:06.352Z,1.20
2022-09-15T22:28:32.880Z,1.33
2022-09-15T22:31:03.034Z,1.10
2022-09-15T22:33:29.417Z,1.15
2022-09-15T22:35:56.896Z,1.23
2022-09-15T22:38:23.747Z,1.17
2022-09-15T22:40:50.317Z,1.10
2022-09-15T22:43:16.539Z,1.10
2022-09-15T22:45:42.812Z,1.00
2022-09-15T22:48:09.126Z,1.08
2022-09-15T22:50:35.566Z,1.20
2022-09-15T22:53:01.844Z,1.13
2022-09-15T22:55:28.255Z,1.05
2022-09-15T22:57:54.485Z,1.17
2022-09-15T23:00:20.980Z,0.93
2022-09-15T23:02:47.288Z,1.25
2022-09-15T23:05:13.724Z,1.02
2022-09-15T23:07:40.021Z,1.20
2022-09-15T23:10:06.325Z,0.80
2022-09-15T23:12:32.603Z,1.15
2022-09-15T23:15:03.665Z,0.75
2022-09-15T23:17:30.448Z,1.10
2022-09-15T23:19:57.263Z,1.00
2022-09-15T23:22:23.518Z,1.08
2022-09-15T23:24:50.789Z,1.02
2022-09-15T23:27:17.149Z,0.82
2022-09-15T23:29:43.404Z,0.60
2022-09-15T23:32:09.732Z,0.80
2022-09-15T23:34:36.052Z,0.80
2022-09-15T23:37:02.818Z,0.88
2022-09-15T23:39:29.245Z,0.65
2022-09-15T23:41:55.498Z,0.80
2022-09-15T23:44:21.811Z,0.90
2022-09-15T23:46:48.116Z,0.80
2022-09-15T23:49:18.485Z,0.82
2022-09-15T23:51:44.971Z,0.95
2022-09-15T23:54:11.358Z,1.10
2022-09-15T23:56:37.659Z,0.95
2022-09-15T23:59:03.867Z,0.70
